Eleanor, Illinois
Current Conditions -  °F | °C
As of 7:35 PM on Sunday 23 Nov 2014 (Local Time) from KGBG Reporting Station
Haze Haze  
Wind Chill: 49°   Ceiling: 200
Heat Index: 49°   Visibility: 1.5mi
Dew Point: 49°   Wind: 0mph
Humidity: 98%   Direction: NA
Pressure: 29.24"   Gusts: NA
Location:  41.0248°N, 90.7263°W
Report Text: KGBG 240135Z AUTO 00000KT 1 1/2SM BR OVC002 10/09 A2924 RMK AO2 T00950092
Loading
Personal Weather Stations






























Interactive Weather Map New forecast layout! Learn more

10-Day Weather Forecast

Advertisements
Track Severe Weather on mobile